Time;durP1;ratioP1;P1;durP2;ratioP2;P2;SDS_P1;SDS_P2;PMS_P1;PMS_P2;Temp;Humidity;BMP_temperature;BMP_pressure;BME280_temperature;BME280_humidity;BME280_pressure;Samples;Min_cycle;Max_cycle;Signal;HPM_P1;HPM_P2
2022/06/07 00:02:24;;;;;;;0.00;0.00;;;;;;;16.29;46.62;100836.19;7364532;19;20023;-58
2022/06/07 00:04:51;;;;;;;0.00;0.00;;;;;;;16.17;46.78;100829.69;7367164;19;20493;-63
2022/06/07 00:07:16;;;;;;;0.00;0.00;;;;;;;16.22;46.64;100840.91;7364967;19;20385;-60
2022/06/07 00:09:42;;;;;;;0.00;0.00;;;;;;;16.19;47.36;100841.00;7366009;19;20002;-63
2022/06/07 00:12:07;;;;;;;0.00;0.00;;;;;;;16.15;47.40;100842.06;7366022;19;20027;-63
2022/06/07 00:14:34;;;;;;;0.00;0.00;;;;;;;16.10;47.19;100841.41;7367342;19;20010;-62
2022/06/07 00:17:05;;;;;;;0.00;0.00;;;;;;;16.06;46.94;100845.09;7366181;19;20047;-63
2022/06/07 00:19:34;;;;;;;0.00;0.00;;;;;;;15.99;46.80;100841.03;7366628;19;20011;-63
2022/06/07 00:22:00;;;;;;;0.00;0.00;;;;;;;15.95;47.63;100842.91;7367113;19;20517;-63
2022/06/07 00:24:26;;;;;;;0.00;0.00;;;;;;;15.91;48.28;100843.97;7367049;19;20010;-63
2022/06/07 00:26:52;;;;;;;0.00;0.00;;;;;;;15.86;47.76;100837.19;7367847;19;20015;-62
2022/06/07 00:29:19;;;;;;;0.00;0.00;;;;;;;15.81;47.72;100840.00;7366804;19;20018;-63
2022/06/07 00:31:45;;;;;;;0.00;0.00;;;;;;;15.70;48.41;100819.41;7367096;19;20039;-63
2022/06/07 00:34:10;;;;;;;0.00;0.00;;;;;;;15.62;48.18;100823.25;7367672;19;20010;-63
2022/06/07 00:36:37;;;;;;;0.00;0.00;;;;;;;15.65;48.49;100834.53;7367079;19;20369;-63
2022/06/07 00:39:03;;;;;;;0.00;0.00;;;;;;;15.60;47.85;100836.47;7368352;19;20473;-62
2022/06/07 00:41:29;;;;;;;0.00;0.00;;;;;;;15.56;48.17;100837.50;7367321;19;20030;-63
2022/06/07 00:44:25;;;;;;;0.00;0.00;;;;;;;15.51;46.83;100832.47;7366681;19;20014;-61
2022/06/07 00:47:09;;;;;;;0.00;0.00;;;;;;;15.46;48.00;100833.53;7264351;19;2004953;-62
2022/06/07 00:50:06;;;;;;;0.00;0.00;;;;;;;15.38;47.44;100830.38;7365571;19;20006;-63
2022/06/07 00:52:33;;;;;;;0.00;0.00;;;;;;;15.32;48.21;100827.06;7264992;19;2004301;-63
2022/06/07 00:54:59;;;;;;;0.00;0.00;;;;;;;15.27;48.42;100829.03;7367149;19;20010;-62
2022/06/07 00:57:26;;;;;;;0.00;0.00;;;;;;;15.24;48.17;100834.41;7365142;19;20493;-63
2022/06/07 00:59:52;;;;;;;0.00;0.00;;;;;;;15.20;48.98;100838.06;7365229;19;20014;-61
2022/06/07 01:02:19;;;;;;;0.00;0.00;;;;;;;15.16;49.12;100831.25;7362626;19;20062;-63
2022/06/07 01:04:44;;;;;;;0.00;0.00;;;;;;;15.13;48.61;100830.50;7365655;19;20003;-63
2022/06/07 01:12:38;;;;;;;0.00;0.00;;;;;;;15.01;49.16;100816.06;7363241;19;20017;-62
2022/06/07 01:15:05;;;;;;;0.00;0.00;;;;;;;14.97;48.80;100810.06;7364901;19;20014;-64
2022/06/07 01:17:30;;;;;;;0.00;0.00;;;;;;;14.93;48.94;100807.59;7362914;19;20854;-63
2022/06/07 01:19:56;;;;;;;0.00;0.00;;;;;;;14.88;49.02;100804.31;7367298;19;21500;-63
2022/06/07 01:22:22;;;;;;;0.00;0.00;;;;;;;14.85;48.55;100807.94;7365037;19;20081;-63
2022/06/07 01:24:48;;;;;;;0.00;0.00;;;;;;;14.82;48.81;100810.66;7366419;19;20026;-63
2022/06/07 01:27:14;;;;;;;0.00;0.00;;;;;;;14.69;48.73;100788.38;7363734;19;20021;-62
2022/06/07 01:29:41;;;;;;;0.00;0.00;;;;;;;14.65;48.61;100787.66;7364607;19;20083;-62
2022/06/07 01:32:08;;;;;;;0.00;0.00;;;;;;;14.68;48.62;100792.78;7366313;19;20582;-62
2022/06/07 01:34:33;;;;;;;0.00;0.00;;;;;;;14.66;48.57;100792.00;7365336;19;20014;-62
2022/06/07 01:37:00;;;;;;;0.00;0.00;;;;;;;14.62;49.25;100793.03;7366624;19;20038;-63
2022/06/07 01:42:12;;;;;;;0.00;0.00;;;;;;;14.54;48.88;100784.56;7366408;19;20026;-61
2022/06/07 01:44:39;;;;;;;0.10;0.10;;;;;;;14.49;48.88;100789.13;7364193;19;20038;-63
2022/06/07 01:47:07;;;;;;;0.00;0.00;;;;;;;14.43;49.25;100782.31;7365946;19;20042;-62
2022/06/07 01:49:34;;;;;;;0.00;0.00;;;;;;;14.36;49.52;100775.56;7363952;19;20027;-63
2022/06/07 01:51:59;;;;;;;0.00;0.00;;;;;;;14.37;48.89;100777.28;7364887;19;20038;-59
2022/06/07 01:54:25;;;;;;;0.00;0.00;;;;;;;14.35;49.44;100778.28;7366433;19;20002;-62
2022/06/07 01:56:51;;;;;;;0.00;0.00;;;;;;;14.31;49.32;100779.28;7363070;19;20073;-62
2022/06/07 01:59:18;;;;;;;0.00;0.00;;;;;;;14.27;49.37;100784.63;7356511;19;20383;-64
2022/06/07 02:01:44;;;;;;;0.00;0.00;;;;;;;14.24;49.08;100782.16;7365788;19;20019;-62
2022/06/07 02:04:10;;;;;;;0.00;0.00;;;;;;;14.20;49.32;100779.69;7366481;19;20013;-63
2022/06/07 02:06:37;;;;;;;0.00;0.00;;;;;;;14.17;49.77;100780.63;7363097;19;20470;-63
2022/06/07 02:09:03;;;;;;;0.00;0.00;;;;;;;14.04;49.33;100753.13;7366114;19;20016;-62
2022/06/07 02:11:29;;;;;;;0.00;0.00;;;;;;;14.09;49.57;100772.19;7363553;19;20801;-63
2022/06/07 02:13:55;;;;;;;0.00;0.00;;;;;;;14.05;49.96;100765.34;7365975;19;20042;-62
2022/06/07 02:16:21;;;;;;;0.00;0.00;;;;;;;13.91;50.19;100746.59;7363832;19;20023;-62
2022/06/07 02:18:47;;;;;;;0.00;0.00;;;;;;;13.98;50.03;100764.69;7367810;19;20017;-63
2022/06/07 02:21:14;;;;;;;0.00;0.00;;;;;;;13.96;50.43;100765.66;7363174;19;20003;-63
2022/06/07 02:23:41;;;;;;;0.00;0.00;;;;;;;13.92;50.30;100762.28;7362361;19;20836;-60
2022/06/07 02:26:13;;;;;;;0.00;0.00;;;;;;;13.81;50.49;100745.19;7363797;19;20034;-63
2022/06/07 02:28:42;;;;;;;0.00;0.00;;;;;;;13.89;51.35;100761.50;7365076;19;20014;-63
2022/06/07 02:31:09;;;;;;;0.00;0.00;;;;;;;13.87;51.23;100760.72;7364894;19;20006;-63
2022/06/07 02:33:37;;;;;;;0.00;0.00;;;;;;;13.82;50.75;100753.00;7361721;19;20013;-63
2022/06/07 02:36:05;;;;;;;0.00;0.00;;;;;;;13.82;50.70;100752.16;7358588;19;20570;-63
2022/06/07 02:38:31;;;;;;;0.00;0.00;;;;;;;13.77;50.47;100747.91;7364727;19;20474;-62
2022/06/07 02:40:57;;;;;;;0.05;0.05;;;;;;;13.75;50.73;100743.66;7364805;19;20018;-62
2022/06/07 02:43:22;;;;;;;0.00;0.00;;;;;;;13.69;50.49;100736.84;7365380;19;20010;-63
2022/06/07 02:45:48;;;;;;;0.00;0.00;;;;;;;13.69;50.78;100749.97;7363911;19;20015;-63
2022/06/07 02:48:13;;;;;;;0.00;0.00;;;;;;;13.66;50.99;100747.44;7364503;19;20010;-62
2022/06/07 02:50:39;;;;;;;0.00;0.00;;;;;;;13.60;50.75;100737.16;7363763;19;20041;-63
2022/06/07 02:53:05;;;;;;;0.00;0.00;;;;;;;13.61;50.61;100743.28;7366101;19;20033;-63
2022/06/07 02:55:30;;;;;;;0.00;0.00;;;;;;;13.58;50.97;100744.22;7362415;19;20006;-63
2022/06/07 02:57:56;;;;;;;0.00;0.00;;;;;;;13.56;50.52;100735.56;7365469;19;20010;-62
2022/06/07 03:00:22;;;;;;;0.00;0.00;;;;;;;13.53;51.11;100730.41;7361080;19;20015;-63
2022/06/07 03:02:48;;;;;;;0.00;0.00;;;;;;;13.51;50.94;100732.22;7364833;19;20699;-63
2022/06/07 03:05:14;;;;;;;0.00;0.00;;;;;;;13.48;50.93;100727.06;7353027;19;20280;-62
2022/06/07 03:07:40;;;;;;;0.00;0.00;;;;;;;13.43;51.56;100729.88;7363275;19;20713;-61
2022/06/07 03:10:07;;;;;;;0.00;0.00;;;;;;;13.41;51.79;100725.59;7370300;19;20077;-62
2022/06/07 03:12:32;;;;;;;0.00;0.00;;;;;;;13.37;51.43;100721.34;7371112;19;20007;-63
2022/06/07 03:14:59;;;;;;;0.00;0.00;;;;;;;13.35;51.37;100723.19;7371130;19;20034;-63
2022/06/07 03:17:24;;;;;;;0.00;0.00;;;;;;;13.27;51.47;100718.19;7370836;19;20009;-61
2022/06/07 03:19:51;;;;;;;0.00;0.00;;;;;;;13.23;51.55;100706.94;7365284;19;20010;-63
2022/06/07 03:22:17;;;;;;;0.00;0.00;;;;;;;13.24;51.45;100718.28;7366196;19;20010;-62
2022/06/07 03:24:43;;;;;;;0.00;0.00;;;;;;;13.16;51.38;100699.28;7365969;19;20039;-61
2022/06/07 03:27:09;;;;;;;0.00;0.00;;;;;;;13.17;51.07;100704.47;7371376;19;20010;-62
2022/06/07 03:29:34;;;;;;;0.00;0.00;;;;;;;13.14;51.59;100701.97;7370067;19;20034;-61
2022/06/07 03:32:00;;;;;;;0.00;0.00;;;;;;;13.03;51.83;100688.38;7369126;19;20006;-63
2022/06/07 03:34:25;;;;;;;0.00;0.00;;;;;;;13.02;51.59;100691.88;7370795;19;20019;-60
2022/06/07 03:36:51;;;;;;;0.00;0.00;;;;;;;13.05;51.58;100707.50;7368937;19;20006;-63
2022/06/07 03:39:16;;;;;;;0.00;0.00;;;;;;;13.03;51.33;100708.47;7371302;19;20031;-60
2022/06/07 03:41:42;;;;;;;0.00;0.00;;;;;;;12.97;51.54;100701.66;7369272;19;20091;-62
2022/06/07 03:44:07;;;;;;;0.00;0.00;;;;;;;12.96;51.92;100713.91;7371913;19;26133;-62
2022/06/07 03:46:33;;;;;;;0.00;0.00;;;;;;;12.94;51.88;100709.63;7369593;19;20007;-63
2022/06/07 03:49:00;;;;;;;0.00;0.00;;;;;;;12.91;52.13;100709.72;7371096;19;20465;-63
2022/06/07 03:51:27;;;;;;;0.00;0.00;;;;;;;12.90;52.00;100702.78;7371441;19;20087;-62
2022/06/07 03:53:53;;;;;;;0.00;0.00;;;;;;;12.87;52.47;100708.09;7368122;19;20148;-60
2022/06/07 03:56:21;;;;;;;0.00;0.00;;;;;;;12.82;52.51;100703.00;7371414;19;20006;-63
2022/06/07 03:58:47;;;;;;;0.00;0.00;;;;;;;12.82;52.21;100704.78;7366859;19;20752;-63
2022/06/07 04:01:15;;;;;;;0.00;0.00;;;;;;;12.81;52.32;100708.31;7371672;19;20010;-63
2022/06/07 04:03:43;;;;;;;;;;;;;;;12.80;50.24;100714.47;7370629;19;20013;-62
2022/06/07 04:06:20;;;;;;;0.00;0.00;;;;;;;12.78;51.74;100718.91;7371921;19;19931;-63
2022/06/07 04:08:45;;;;;;;0.00;0.00;;;;;;;12.73;52.17;100712.03;7368093;19;20086;-63
2022/06/07 04:11:13;;;;;;;0.00;0.00;;;;;;;12.71;52.00;100703.34;7371413;19;20801;-62
2022/06/07 04:13:38;;;;;;;0.00;0.00;;;;;;;12.69;52.43;100699.94;7369150;19;20082;-62
2022/06/07 04:16:09;;;;;;;0.00;0.00;;;;;;;12.68;52.77;100698.22;7370774;19;20074;-63
2022/06/07 04:18:34;;;;;;;0.00;0.00;;;;;;;12.63;52.92;100694.88;7367233;19;20008;-64
2022/06/07 04:21:00;;;;;;;0.00;0.00;;;;;;;12.60;53.13;100694.97;7368175;19;20018;-63
2022/06/07 04:23:26;;;;;;;0.00;0.00;;;;;;;12.66;53.02;100705.25;7370561;19;20011;-63
2022/06/07 04:25:52;;;;;;;0.00;0.00;;;;;;;12.56;52.55;100698.59;7370678;19;20466;-63
2022/06/07 04:28:18;;;;;;;0.00;0.00;;;;;;;12.67;52.38;100711.34;7368887;19;20006;-62
2022/06/07 04:30:48;;;;;;;0.00;0.00;;;;;;;12.64;52.22;100712.31;7369497;19;20072;-63
2022/06/07 04:33:15;;;;;;;0.00;0.00;;;;;;;12.50;52.95;100688.31;7368988;19;21426;-62
2022/06/07 04:35:45;;;;;;;0.00;0.00;;;;;;;12.56;53.89;100709.06;7370578;19;20034;-62
2022/06/07 04:38:12;;;;;;;0.00;0.00;;;;;;;12.54;53.76;100721.38;7369840;19;20105;-59
2022/06/07 04:40:39;;;;;;;0.00;0.00;;;;;;;12.52;54.27;100723.19;7369953;19;20013;-62
2022/06/07 04:43:05;;;;;;;0.00;0.00;;;;;;;12.50;54.48;100724.97;7368867;19;20014;-63
2022/06/07 04:45:31;;;;;;;0.00;0.00;;;;;;;12.50;54.40;100719.72;7367273;19;20074;-62
2022/06/07 04:47:57;;;;;;;0.00;0.00;;;;;;;12.50;54.80;100718.88;7369220;19;20014;-63
2022/06/07 04:50:22;;;;;;;0.00;0.00;;;;;;;12.51;54.66;100715.34;7366923;19;20025;-63
2022/06/07 04:52:48;;;;;;;0.00;0.00;;;;;;;12.53;54.55;100708.31;7369388;19;20119;-63
2022/06/07 04:55:15;;;;;;;0.00;0.00;;;;;;;12.54;55.07;100710.03;7368836;19;20006;-63
2022/06/07 04:57:41;;;;;;;0.00;0.00;;;;;;;12.55;55.24;100703.88;7367549;19;20006;-63
2022/06/07 05:00:09;;;;;;;0.00;0.00;;;;;;;12.58;55.56;100704.66;7365532;19;20102;-61
2022/06/07 05:02:37;;;;;;;;;;;;;;;12.63;52.24;100708.00;7370532;19;20002;-63
2022/06/07 05:05:04;;;;;;;0.00;0.00;;;;;;;12.64;55.21;100712.31;7367663;19;19918;-63
2022/06/07 05:07:30;;;;;;;0.00;0.00;;;;;;;12.61;55.54;100691.44;7369204;19;20038;-63
2022/06/07 05:09:55;;;;;;;0.00;0.00;;;;;;;12.68;55.94;100698.22;7367466;19;20011;-62
2022/06/07 05:12:20;;;;;;;0.00;0.00;;;;;;;12.73;56.12;100701.56;7369609;19;20006;-62
2022/06/07 05:14:47;;;;;;;0.00;0.00;;;;;;;12.78;56.43;100703.19;7367261;19;20010;-63
2022/06/07 05:17:13;;;;;;;0.00;0.00;;;;;;;12.81;56.30;100701.28;7369699;19;20014;-60
2022/06/07 05:19:39;;;;;;;0.00;0.00;;;;;;;12.85;56.40;100696.81;7370112;19;20074;-63
2022/06/07 05:22:05;;;;;;;0.00;0.00;;;;;;;12.89;56.72;100690.59;7368306;19;20427;-63
2022/06/07 05:24:31;;;;;;;0.00;0.00;;;;;;;12.84;56.85;100682.88;7368958;19;20010;-62
2022/06/07 05:27:00;;;;;;;0.00;0.00;;;;;;;12.98;56.14;100701.63;7368677;19;20002;-64
2022/06/07 05:29:42;;;;;;;0.00;0.00;;;;;;;13.04;55.92;100695.31;7365288;19;20466;-63
2022/06/07 05:32:08;;;;;;;0.00;0.00;;;;;;;12.99;57.09;100678.88;7369378;19;20011;-63
2022/06/07 05:34:33;;;;;;;0.00;0.00;;;;;;;13.11;56.77;100694.19;7368011;19;24366;-62
2022/06/07 05:36:58;;;;;;;0.00;0.00;;;;;;;13.16;56.94;100691.44;7369211;19;20015;-63
2022/06/07 05:39:27;;;;;;;0.00;0.00;;;;;;;13.21;56.55;100693.00;7366748;19;20006;-62
2022/06/07 05:41:53;;;;;;;0.00;0.00;;;;;;;13.23;55.63;100691.22;7367630;19;20891;-62
2022/06/07 05:44:20;;;;;;;0.00;0.00;;;;;;;13.31;56.54;100697.97;7368871;19;20010;-62
2022/06/07 05:46:46;;;;;;;0.00;0.00;;;;;;;13.34;54.94;100695.25;7367882;19;20476;-62
2022/06/07 05:49:12;;;;;;;0.00;0.00;;;;;;;13.40;55.26;100692.41;7366762;19;20011;-62
2022/06/07 05:51:39;;;;;;;0.00;0.00;;;;;;;13.45;54.76;100695.72;7367850;19;20010;-63
2022/06/07 05:54:06;;;;;;;0.00;0.00;;;;;;;13.50;54.80;100704.28;7366521;19;20044;-60
2022/06/07 05:56:32;;;;;;;0.00;0.00;;;;;;;13.49;55.82;100689.47;7367729;19;20006;-64
2022/06/07 05:58:57;;;;;;;0.00;0.00;;;;;;;13.51;54.85;100690.25;7363477;19;20764;-62
2022/06/07 06:01:23;;;;;;;0.00;0.00;;;;;;;13.62;54.48;100693.34;7367690;19;20010;-62
2022/06/07 06:03:48;;;;;;;0.00;0.00;;;;;;;13.66;55.09;100688.84;7365975;19;20029;-63
2022/06/07 06:06:14;;;;;;;0.00;0.00;;;;;;;13.63;55.88;100681.09;7365739;19;20019;-62
2022/06/07 06:11:26;;;;;;;0.00;0.00;;;;;;;13.69;54.54;100681.75;7365677;19;20086;-62
2022/06/07 06:13:51;;;;;;;;;;;;;;;13.87;52.93;100703.84;7365570;19;20010;-63
2022/06/07 06:16:19;;;;;;;0.00;0.00;;;;;;;13.85;54.60;100694.31;7365169;19;19925;-64
2022/06/07 06:18:46;;;;;;;0.00;0.00;;;;;;;13.92;54.12;100701.03;7366080;19;20002;-63
2022/06/07 06:21:12;;;;;;;0.00;0.00;;;;;;;13.86;56.09;100682.91;7367103;19;21395;-63
2022/06/07 06:23:38;;;;;;;0.00;0.00;;;;;;;13.98;57.09;100700.81;7365314;19;20119;-64
2022/06/07 06:26:10;;;;;;;0.00;0.00;;;;;;;13.99;57.03;100692.03;7365674;19;20350;-62
2022/06/07 06:28:37;;;;;;;0.00;0.00;;;;;;;14.05;58.37;100697.06;7367120;19;20033;-64
2022/06/07 06:31:05;;;;;;;0.00;0.00;;;;;;;14.05;57.10;100694.44;7365245;19;20053;-62
2022/06/07 06:33:42;;;;;;;0.00;0.00;;;;;;;14.08;57.92;100690.81;7366565;19;20457;-60
2022/06/07 06:36:09;;;;;;;0.00;0.00;;;;;;;14.22;58.29;100704.31;7365902;19;20502;-62
2022/06/07 06:38:35;;;;;;;0.00;0.00;;;;;;;14.26;58.70;100701.50;7366045;19;20007;-64
2022/06/07 06:41:13;;;;;;;0.00;0.00;;;;;;;14.34;56.97;100695.09;7362023;19;20021;-62
2022/06/07 06:43:38;;;;;;;0.00;0.00;;;;;;;14.36;58.94;100690.66;7362388;19;20003;-63
2022/06/07 06:46:10;;;;;;;0.00;0.00;;;;;;;14.44;58.08;100693.81;7365703;19;20057;-62
2022/06/07 06:48:36;;;;;;;0.00;0.00;;;;;;;14.41;58.81;100684.31;7367744;19;20007;-63
2022/06/07 06:51:04;;;;;;;0.00;0.00;;;;;;;14.52;58.83;100691.78;7364489;19;20622;-63
2022/06/07 06:53:31;;;;;;;0.00;0.00;;;;;;;14.57;58.47;100694.25;7364708;19;20769;-63
2022/06/07 06:55:56;;;;;;;0.00;0.00;;;;;;;14.61;58.82;100686.19;7364265;19;20026;-62
2022/06/07 06:58:25;;;;;;;0.00;0.00;;;;;;;14.64;58.48;100680.78;7365173;19;20022;-63
2022/06/07 07:00:59;;;;;;;0.00;0.00;;;;;;;14.66;57.64;100671.09;7360791;19;20031;-64
2022/06/07 07:03:24;;;;;;;0.00;0.00;;;;;;;14.71;58.54;100676.16;7359989;19;20010;-61
2022/06/07 07:05:51;;;;;;;0.00;0.00;;;;;;;14.84;58.25;100689.66;7363258;19;20017;-62
2022/06/07 07:08:17;;;;;;;0.00;0.00;;;;;;;14.89;58.11;100690.31;7359105;19;20009;-64
2022/06/07 07:10:42;;;;;;;0.00;0.00;;;;;;;14.95;58.37;100684.81;7361063;19;20006;-64
2022/06/07 07:13:08;;;;;;;0.00;0.00;;;;;;;14.98;58.05;100682.06;7361174;19;20018;-62
2022/06/07 07:15:33;;;;;;;0.05;0.05;;;;;;;15.07;57.96;100684.31;7363663;19;20010;-64
2022/06/07 07:17:59;;;;;;;0.05;0.05;;;;;;;15.02;58.09;100660.00;7361352;19;20038;-63
2022/06/07 07:20:24;;;;;;;0.00;0.00;;;;;;;15.17;58.01;100682.16;7365721;19;20074;-62
2022/06/07 07:22:50;;;;;;;0.00;0.00;;;;;;;15.19;58.18;100668.00;7362511;19;20006;-63
2022/06/07 07:25:15;;;;;;;0.00;0.00;;;;;;;15.22;58.22;100670.53;7363680;19;20488;-62
2022/06/07 07:27:41;;;;;;;0.00;0.00;;;;;;;15.32;57.50;100679.75;7359106;19;20010;-63
2022/06/07 07:30:07;;;;;;;0.00;0.00;;;;;;;15.37;57.50;100676.06;7364325;19;20006;-63
2022/06/07 07:32:33;;;;;;;0.00;0.00;;;;;;;15.42;57.57;100663.56;7363838;19;20756;-64
2022/06/07 07:34:59;;;;;;;0.00;0.00;;;;;;;15.45;57.79;100666.03;7362840;19;20473;-62
2022/06/07 07:37:24;;;;;;;0.00;0.00;;;;;;;15.51;57.85;100663.13;7364313;19;20030;-62
2022/06/07 07:39:50;;;;;;;0.00;0.00;;;;;;;15.56;58.16;100661.16;7363400;19;20688;-63
2022/06/07 07:42:15;;;;;;;0.10;0.10;;;;;;;15.61;58.00;100653.06;7357810;19;20098;-62
2022/06/07 07:44:41;;;;;;;0.00;0.00;;;;;;;15.65;57.61;100646.78;7362401;19;20027;-63
2022/06/07 07:47:06;;;;;;;0.00;0.00;;;;;;;15.70;57.78;100650.91;7360719;19;20018;-63
2022/06/07 07:49:32;;;;;;;0.00;0.00;;;;;;;15.76;57.52;100658.56;7363866;19;20013;-63
2022/06/07 07:51:58;;;;;;;0.00;0.00;;;;;;;15.82;57.34;100649.53;7361169;19;20005;-62
2022/06/07 07:54:24;;;;;;;0.00;0.00;;;;;;;15.89;58.15;100655.34;7359072;19;20024;-62
2022/06/07 07:56:50;;;;;;;0.00;0.00;;;;;;;15.82;57.58;100637.22;7363396;19;20473;-63
2022/06/07 07:59:19;;;;;;;0.10;0.10;;;;;;;16.00;57.10;100645.19;7369686;19;20070;-63
2022/06/07 08:01:45;;;;;;;0.00;0.00;;;;;;;15.95;57.35;100631.38;7366167;19;20062;-64
2022/06/07 08:04:12;;;;;;;0.00;0.00;;;;;;;16.13;57.32;100648.97;7363889;19;20040;-63
2022/06/07 08:06:38;;;;;;;0.00;0.00;;;;;;;16.19;56.96;100638.13;7360780;19;20023;-62
2022/06/07 08:09:06;;;;;;;0.00;0.00;;;;;;;16.27;56.49;100637.75;7353645;19;20013;-63
2022/06/07 08:11:34;;;;;;;0.00;0.00;;;;;;;16.30;56.72;100633.22;7343036;19;20026;-62
2022/06/07 08:14:00;;;;;;;0.00;0.00;;;;;;;16.33;56.16;100630.44;7369035;19;20009;-64
2022/06/07 08:16:26;;;;;;;0.00;0.00;;;;;;;16.43;56.13;100641.41;7342860;19;20616;-63
2022/06/07 08:18:52;;;;;;;0.00;0.00;;;;;;;16.43;56.27;100632.63;7369212;19;20013;-64
2022/06/07 08:21:22;;;;;;;0.00;0.00;;;;;;;16.54;55.70;100632.97;7366160;19;20390;-63
2022/06/07 08:23:53;;;;;;;0.00;0.00;;;;;;;16.58;55.56;100631.91;7369741;19;20002;-63
2022/06/07 08:26:19;;;;;;;0.00;0.00;;;;;;;16.58;56.08;100631.91;7368934;19;20010;-62
2022/06/07 08:28:45;;;;;;;0.00;0.00;;;;;;;16.65;55.58;100633.28;7366967;19;20086;-63
2022/06/07 08:31:20;;;;;;;0.00;0.00;;;;;;;16.77;54.45;100627.44;7363705;19;20501;-63
2022/06/07 08:39:15;;;;;;;0.00;0.00;;;;;;;16.86;55.82;100626.13;7364823;19;20010;-63
2022/06/07 08:41:45;;;;;;;0.00;0.00;;;;;;;16.95;55.51;100636.22;7360707;19;20022;-61
2022/06/07 08:44:22;;;;;;;0.00;0.00;;;;;;;17.01;55.29;100629.78;7366518;19;20013;-63
2022/06/07 08:46:51;;;;;;;0.08;0.08;;;;;;;17.04;54.68;100613.81;7370480;19;20022;-63
2022/06/07 08:49:18;;;;;;;0.00;0.00;;;;;;;17.08;55.41;100610.06;7366666;19;20030;-62
2022/06/07 08:52:11;;;;;;;0.00;0.00;;;;;;;17.16;53.63;100602.63;7365137;19;20027;-63
2022/06/07 08:54:38;;;;;;;0.08;0.08;;;;;;;17.21;54.64;100611.16;7264677;19;2004569;-63
2022/06/07 08:57:23;;;;;;;0.00;0.00;;;;;;;17.36;53.48;100605.09;7367291;19;20021;-64
2022/06/07 08:59:54;;;;;;;0.00;0.00;;;;;;;17.42;54.32;100601.25;7360488;19;20044;-62
2022/06/07 09:02:35;;;;;;;0.00;0.00;;;;;;;17.55;53.86;100604.13;7358025;19;20041;-62
2022/06/07 09:05:00;;;;;;;0.00;0.00;;;;;;;17.63;54.45;100615.09;7356657;19;20014;-61
2022/06/07 09:07:26;;;;;;;0.00;0.00;;;;;;;17.70;54.29;100592.75;7364485;19;20462;-63
2022/06/07 09:12:55;;;;;;;0.00;0.00;;;;;;;18.22;54.22;100592.53;7364541;19;20037;-63
2022/06/07 09:15:25;;;;;;;0.00;0.00;;;;;;;18.47;54.28;100596.44;7368475;19;20025;-62
2022/06/07 09:17:55;;;;;;;0.00;0.00;;;;;;;18.67;54.10;100596.16;7367577;19;20052;-63
2022/06/07 09:20:29;;;;;;;0.10;0.10;;;;;;;18.99;53.80;100596.06;7368841;19;20355;-63
2022/06/07 09:22:54;;;;;;;0.05;0.05;;;;;;;19.19;53.36;100593.09;7363114;19;20006;-62
2022/06/07 09:25:34;;;;;;;0.00;0.00;;;;;;;19.52;52.66;100589.34;7369513;19;20013;-63
2022/06/07 09:28:02;;;;;;;0.00;0.00;;;;;;;19.71;51.72;100584.63;7366084;19;20029;-63
2022/06/07 09:30:37;;;;;;;0.00;0.00;;;;;;;19.91;51.00;100580.72;7367421;19;20727;-63
2022/06/07 09:33:22;;;;;;;0.00;0.00;;;;;;;20.21;50.98;100575.25;7360321;19;20037;-63
2022/06/07 09:35:50;;;;;;;0.00;0.00;;;;;;;20.40;50.50;100573.09;7368617;19;20642;-63
2022/06/07 09:38:41;;;;;;;0.00;0.00;;;;;;;20.69;50.56;100575.66;7366313;19;20026;-63
2022/06/07 09:41:38;;;;;;;0.10;0.10;;;;;;;21.07;49.32;100577.53;7362524;19;20026;-63
2022/06/07 09:44:29;;;;;;;0.00;0.00;;;;;;;21.34;49.35;100570.34;7219602;19;2004168;-64
2022/06/07 09:47:16;;;;;;;0.08;0.08;;;;;;;21.63;48.60;100578.06;7205902;19;2005358;-62
2022/06/07 09:49:46;;;;;;;;;;;;;;;21.86;48.89;100577.28;7300681;19;20109;-63
2022/06/07 09:52:26;;;;;;;0.00;0.00;;;;;;;21.98;47.12;100565.75;7310060;19;19923;-63
2022/06/07 09:55:09;;;;;;;0.10;0.10;;;;;;;22.08;46.12;100565.09;7312672;19;20014;-62
2022/06/07 09:57:36;;;;;;;0.00;0.00;;;;;;;22.19;46.00;100557.22;7364652;19;20006;-64
2022/06/07 10:00:11;;;;;;;0.00;0.00;;;;;;;22.36;46.33;100550.66;7365508;19;20467;-62
2022/06/07 10:03:00;;;;;;;0.00;0.00;;;;;;;22.54;45.71;100552.78;7363962;19;20014;-63
2022/06/07 10:05:37;;;;;;;0.00;0.00;;;;;;;22.89;45.56;100546.63;7358596;19;20011;-63
2022/06/07 10:08:13;;;;;;;0.03;0.03;;;;;;;23.23;45.68;100546.69;7362987;19;20461;-63
2022/06/07 10:10:57;;;;;;;0.05;0.05;;;;;;;23.69;45.71;100537.75;7343182;19;20010;-63
2022/06/07 10:13:53;;;;;;;0.10;0.10;;;;;;;24.19;45.20;100543.47;7338694;19;20054;-64
2022/06/07 10:16:35;;;;;;;0.05;0.05;;;;;;;24.57;44.06;100537.63;7237875;19;2004863;-63
2022/06/07 10:19:15;;;;;;;0.10;0.10;;;;;;;24.93;42.61;100541.66;7325937;19;20016;-63
2022/06/07 10:22:05;;;;;;;0.00;0.00;;;;;;;25.29;42.62;100542.19;7343367;19;20022;-63
2022/06/07 10:24:42;;;;;;;0.10;0.10;;;;;;;25.50;40.21;100545.69;7349944;19;20002;-63
2022/06/07 10:27:20;;;;;;;;;;;;;;;25.82;43.21;100531.31;7366392;19;20021;-63
2022/06/07 10:30:11;;;;;;;0.00;0.00;;;;;;;25.84;41.45;100532.00;7357506;19;19931;-63
2022/06/07 10:32:50;;;;;;;0.00;0.00;;;;;;;25.90;40.62;100528.78;7361490;19;20002;-64
2022/06/07 10:35:26;;;;;;;0.00;0.00;;;;;;;26.02;39.05;100522.34;7360685;19;20002;-64
2022/06/07 10:38:11;;;;;;;0.10;0.10;;;;;;;26.10;38.24;100524.28;7364477;19;20454;-63
2022/06/07 10:40:45;;;;;;;0.10;0.10;;;;;;;26.34;37.52;100511.34;7356381;19;20012;-64
2022/06/07 10:43:23;;;;;;;0.03;0.03;;;;;;;26.70;38.67;100508.97;7357333;19;20022;-64
2022/06/07 10:45:51;;;;;;;0.10;0.10;;;;;;;26.93;37.28;100496.09;7355725;19;20002;-64
2022/06/07 10:48:38;;;;;;;0.00;0.00;;;;;;;27.31;37.47;100513.06;7363027;19;20017;-63
2022/06/07 10:54:20;;;;;;;0.10;0.10;;;;;;;28.31;37.01;100499.59;7256538;19;2004471;-64
2022/06/07 10:56:52;;;;;;;0.05;0.05;;;;;;;28.46;36.01;100486.50;7360247;19;20025;-64
2022/06/07 10:59:21;;;;;;;0.10;0.10;;;;;;;28.72;35.12;100497.28;7352388;19;20010;-64
2022/06/07 11:02:02;;;;;;;0.05;0.05;;;;;;;28.73;33.58;100493.56;7356068;19;20029;-63
2022/06/07 11:10:14;;;;;;;0.00;0.00;;;;;;;29.00;34.09;100479.19;7357425;19;20026;-64
2022/06/07 11:12:50;;;;;;;0.10;0.10;;;;;;;29.36;34.59;100479.03;7350834;19;20014;-64
2022/06/07 11:15:31;;;;;;;0.13;0.13;;;;;;;29.82;34.62;100474.16;7365065;19;19998;-64
2022/06/07 11:18:02;;;;;;;0.10;0.10;;;;;;;30.26;33.37;100465.78;7362058;19;20003;-64
2022/06/07 11:20:31;;;;;;;0.00;0.00;;;;;;;30.73;31.40;100456.03;7363570;19;20003;-63
2022/06/07 11:23:05;;;;;;;0.10;0.10;;;;;;;31.11;30.71;100455.41;7356936;19;20014;-64
2022/06/07 11:25:32;;;;;;;0.10;0.10;;;;;;;31.48;30.17;100447.53;7364750;19;20007;-64
2022/06/07 11:28:03;;;;;;;0.03;0.03;;;;;;;31.88;29.45;100442.06;7362462;19;20030;-63
2022/06/07 11:30:34;;;;;;;0.00;0.00;;;;;;;32.34;30.56;100439.34;7368643;19;20427;-61
2022/06/07 11:33:00;;;;;;;0.00;0.00;;;;;;;32.57;28.92;100434.75;7371744;19;20501;-64
2022/06/07 11:35:53;;;;;;;0.00;0.00;;;;;;;33.18;31.22;100442.72;7369037;19;20010;-64
2022/06/07 11:38:19;;;;;;;0.10;0.10;;;;;;;33.34;27.89;100450.63;7256785;19;2004588;-63
2022/06/07 11:40:46;;;;;;;0.07;0.07;;;;;;;33.73;28.79;100449.47;7370197;19;20733;-65
2022/06/07 11:43:50;;;;;;;0.00;0.00;;;;;;;34.20;29.73;100440.78;7371744;19;20090;-63
2022/06/07 11:46:57;;;;;;;0.00;0.00;;;;;;;34.40;29.86;100440.09;7268721;19;2004139;-63
2022/06/07 11:52:13;;;;;;;0.00;0.00;;;;;;;34.42;26.77;100443.44;7367431;19;20011;-63
2022/06/07 11:54:54;;;;;;;0.10;0.10;;;;;;;34.24;27.26;100436.63;7268596;19;2004396;-63
2022/06/07 11:57:28;;;;;;;0.00;0.00;;;;;;;34.10;26.33;100432.13;7370451;19;20081;-64
2022/06/07 12:00:18;;;;;;;0.00;0.00;;;;;;;34.02;28.44;100449.38;7368265;19;20018;-63
2022/06/07 12:03:04;;;;;;;0.00;0.00;;;;;;;33.93;28.12;100446.97;7370619;19;20372;-64
2022/06/07 12:05:52;;;;;;;;;;;;;;;33.77;29.25;100445.34;7370406;19;20022;-63
2022/06/07 12:08:29;;;;;;;0.00;0.00;;;;;;;33.18;25.64;100443.56;7366443;19;19962;-64
2022/06/07 12:11:22;;;;;;;0.00;0.00;;;;;;;32.78;27.17;100442.16;7371406;19;20007;-62